Time;durP1;ratioP1;P1;durP2;ratioP2;P2;SDS_P1;SDS_P2;PMS_P1;PMS_P2;Temp;Humidity;BMP_temperature;BMP_pressure;BME280_temperature;BME280_humidity;BME280_pressure;Samples;Min_cycle;Max_cycle;Signal;HPM_P1;HPM_P2
2022/12/28 00:00:50;;;;;;;;;;;;;;;;;;5000200;28;19977;-79
2022/12/28 00:03:16;;;;;;;;;;;;;;;;;;4984621;28;19910;-80
2022/12/28 00:05:42;;;;;;;;;;;;;;;;;;5001128;28;19913;-80
2022/12/28 00:08:07;;;;;;;;;;;;;;;;;;5016314;28;19914;-80
2022/12/28 00:10:33;;;;;;;;;;;;;;;;;;5016951;28;19914;-79
2022/12/28 00:12:58;;;;;;;;;;;;;;;;;;5018512;28;19937;-80
2022/12/28 00:15:24;;;;;;;;;;;;;;;;;;5017770;28;19954;-80
2022/12/28 00:17:50;;;;;;;;;;;;;;;;;;5016363;28;19908;-79
2022/12/28 00:20:15;;;;;;;;;;;;;;;;;;5018661;28;19989;-80
2022/12/28 00:22:41;;;;;;;;;;;;;;;;;;5018786;28;19941;-79
2022/12/28 00:25:06;;;;;;;;;;;;;;;;;;5017751;28;20493;-81
2022/12/28 00:27:32;;;;;;;;;;;;;;;;;;4985091;28;19920;-79
2022/12/28 00:29:58;;;;;;;;;;;;;;;;;;5018451;28;19914;-79
2022/12/28 00:32:24;;;;;;;;;;;;;;;;;;4999456;28;19914;-79
2022/12/28 00:34:52;;;;;;;;;;;;;;;;;;5013473;28;19921;-79
2022/12/28 00:37:17;;;;;;;;;;;;;;;;;;4998995;28;19925;-80
2022/12/28 00:39:43;;;;;;;;;;;;;;;;;;4984723;28;19898;-80
2022/12/28 00:42:12;;;;;;;;;;;;;;;;;;5000473;28;19914;-80
2022/12/28 00:44:37;;;;;;;;;;;;;;;;;;4999424;28;20130;-81
2022/12/28 00:47:02;;;;;;;;;;;;;;;;;;5015255;28;19913;-78
2022/12/28 00:49:28;;;;;;;;;;;;;;;;;;4983218;28;19909;-80
2022/12/28 00:51:54;;;;;;;;;;;;;;;;;;5017908;28;19909;-79
2022/12/28 00:54:19;;;;;;;;;;;;;;;;;;5016961;28;19976;-80
2022/12/28 00:56:45;;;;;;;;;;;;;;;;;;5017604;28;19925;-81
2022/12/28 00:59:11;;;;;;;;;;;;;;;;;;5016591;28;19918;-80
2022/12/28 01:01:36;;;;;;;;;;;;;;;;;;5000621;28;19913;-79
2022/12/28 01:04:02;;;;;;;;;;;;;;;;;;5016296;28;19914;-80
2022/12/28 01:06:27;;;;;;;;;;;;;;;;;;4995943;28;19914;-81
2022/12/28 01:08:53;;;;;;;;;;;;;;;;;;4995458;28;20293;-80
2022/12/28 01:11:18;;;;;;;;;;;;;;;;;;5010311;28;20393;-81
2022/12/28 01:13:45;;;;;;;;;;;;;;;;;;5006604;28;20008;-80
2022/12/28 01:16:10;;;;;;;;;;;;;;;;;;5005252;28;19921;-80
2022/12/28 01:18:36;;;;;;;;;;;;;;;;;;4987015;28;19925;-80
2022/12/28 01:21:02;;;;;;;;;;;;;;;;;;5002707;28;19914;-79
2022/12/28 01:23:27;;;;;;;;;;;;;;;;;;5002590;28;19914;-80
2022/12/28 01:25:53;;;;;;;;;;;;;;;;;;5002592;28;19914;-80
2022/12/28 01:28:18;;;;;;;;;;;;;;;;;;5001722;28;20341;-80
2022/12/28 01:30:44;;;;;;;;;;;;;;;;;;5001524;28;20337;-80
2022/12/28 01:33:10;;;;;;;;;;;;;;;;;;4984774;28;19914;-80
2022/12/28 01:35:35;;;;;;;;;;;;;;;;;;5000389;28;20296;-79
2022/12/28 01:38:01;;;;;;;;;;;;;;;;;;4999515;28;19917;-80
2022/12/28 01:40:27;;;;;;;;;;;;;;;;;;4983319;28;19918;-80
2022/12/28 01:42:54;;;;;;;;;;;;;;;;;;4999795;28;20427;-80
2022/12/28 01:45:19;;;;;;;;;;;;;;;;;;5007234;28;19949;-80
2022/12/28 01:47:45;;;;;;;;;;;;;;;;;;5006880;28;19993;-79
2022/12/28 01:50:11;;;;;;;;;;;;;;;;;;4975949;28;19921;-80
2022/12/28 01:52:38;;;;;;;;;;;;;;;;;;4995435;28;19914;-80
2022/12/28 01:55:05;;;;;;;;;;;;;;;;;;4996019;28;19973;-79
2022/12/28 01:57:31;;;;;;;;;;;;;;;;;;5013101;28;19929;-81
2022/12/28 01:59:57;;;;;;;;;;;;;;;;;;4981873;28;19937;-79
2022/12/28 02:02:22;;;;;;;;;;;;;;;;;;5013832;28;19894;-79
2022/12/28 02:04:48;;;;;;;;;;;;;;;;;;5014259;28;20018;-79
2022/12/28 02:07:13;;;;;;;;;;;;;;;;;;4981102;28;19914;-79
2022/12/28 02:09:39;;;;;;;;;;;;;;;;;;5011820;28;19921;-79
2022/12/28 02:12:05;;;;;;;;;;;;;;;;;;5011289;28;19898;-80
2022/12/28 02:14:31;;;;;;;;;;;;;;;;;;5012057;28;19953;-80
2022/12/28 02:16:56;;;;;;;;;;;;;;;;;;4980986;28;19913;-80
2022/12/28 02:19:22;;;;;;;;;;;;;;;;;;4995492;28;19924;-79
2022/12/28 02:21:48;;;;;;;;;;;;;;;;;;5010946;28;19921;-78
2022/12/28 02:24:13;;;;;;;;;;;;;;;;;;5011534;28;19916;-80
2022/12/28 02:26:39;;;;;;;;;;;;;;;;;;4994619;28;19946;-80
2022/12/28 02:29:07;;;;;;;;;;;;;;;;;;4994205;28;19914;-80
2022/12/28 02:31:32;;;;;;;;;;;;;;;;;;5009747;28;19914;-80
2022/12/28 02:33:59;;;;;;;;;;;;;;;;;;5008754;28;19974;-79
2022/12/28 02:36:26;;;;;;;;;;;;;;;;;;5009809;28;19918;-80
2022/12/28 02:38:52;;;;;;;;;;;;;;;;;;4974220;28;19949;-81
2022/12/28 02:41:17;;;;;;;;;;;;;;;;;;4991048;28;19917;-81
2022/12/28 02:43:43;;;;;;;;;;;;;;;;;;5008440;28;19920;-80
2022/12/28 02:50:04;;;;;;;;;;;;;;;;;;5004270;28;20304;-80
2022/12/28 02:51:57;;;;;;;;;;;;;;;;;;5002585;28;19914;-79
2022/12/28 02:57:07;;;;;;;;;;;;;;;;;;5004430;28;20313;-80
2022/12/28 02:59:32;;;;;;;;;;;;;;;;;;4986369;28;19917;-81
2022/12/28 03:01:58;;;;;;;;;;;;;;;;;;5001359;28;19945;-80
2022/12/28 03:04:24;;;;;;;;;;;;;;;;;;4985576;28;20289;-80
2022/12/28 03:09:34;;;;;;;;;;;;;;;;;;5003058;28;19929;-80
2022/12/28 03:12:00;;;;;;;;;;;;;;;;;;4986639;28;19914;-80
2022/12/28 03:14:26;;;;;;;;;;;;;;;;;;4998199;28;20284;-79
2022/12/28 03:33:19;;;;;;;;;;;;;;;;;;5001327;28;19915;-79
2022/12/28 03:35:46;;;;;;;;;;;;;;;;;;4981363;28;19945;-81
2022/12/28 03:38:11;;;;;;;;;;;;;;;;;;5016445;28;19928;-79
2022/12/28 03:40:37;;;;;;;;;;;;;;;;;;5013782;28;20274;-80
2022/12/28 03:45:47;;;;;;;;;;;;;;;;;;4995876;28;19921;-80
2022/12/28 03:48:14;;;;;;;;;;;;;;;;;;4980320;28;19917;-80
2022/12/28 03:50:39;;;;;;;;;;;;;;;;;;4982893;28;19914;-79
2022/12/28 03:53:05;;;;;;;;;;;;;;;;;;4983027;28;19920;-80
2022/12/28 03:55:31;;;;;;;;;;;;;;;;;;4999230;28;20373;-79
2022/12/28 03:57:57;;;;;;;;;;;;;;;;;;4965424;28;19918;-80
2022/12/28 04:00:26;;;;;;;;;;;;;;;;;;4965425;28;19920;-79
2022/12/28 04:02:53;;;;;;;;;;;;;;;;;;4982255;28;19914;-79
2022/12/28 04:05:20;;;;;;;;;;;;;;;;;;4997262;28;20334;-79
2022/12/28 04:07:46;;;;;;;;;;;;;;;;;;4998948;28;19917;-78
2022/12/28 04:10:12;;;;;;;;;;;;;;;;;;4981474;28;19913;-80
2022/12/28 04:12:37;;;;;;;;;;;;;;;;;;4965000;28;19921;-80
2022/12/28 04:15:25;;;;;;;;;;;;;;;;;;4985065;28;19953;-80
2022/12/28 04:17:51;;;;;;;;;;;;;;;;;;4965448;28;19960;-80
2022/12/28 04:20:16;;;;;;;;;;;;;;;;;;4984134;28;19921;-80
2022/12/28 04:22:41;;;;;;;;;;;;;;;;;;4983054;28;19914;-79
2022/12/28 04:25:07;;;;;;;;;;;;;;;;;;4986096;28;20341;-79
2022/12/28 04:27:33;;;;;;;;;;;;;;;;;;4989415;28;19914;-79
2022/12/28 04:30:04;;;;;;;;;;;;;;;;;;4987906;28;19914;-79
2022/12/28 04:32:32;;;;;;;;;;;;;;;;;;5005276;28;19913;-79
2022/12/28 04:34:57;;;;;;;;;;;;;;;;;;4988410;28;20001;-79
2022/12/28 04:37:23;;;;;;;;;;;;;;;;;;4988298;28;19957;-79
2022/12/28 04:39:49;;;;;;;;;;;;;;;;;;5005226;28;20267;-79
2022/12/28 04:42:14;;;;;;;;;;;;;;;;;;5004989;28;19917;-79
2022/12/28 04:44:40;;;;;;;;;;;;;;;;;;5009649;28;19921;-79
2022/12/28 04:47:05;;;;;;;;;;;;;;;;;;4987761;28;19914;-80
2022/12/28 04:49:31;;;;;;;;;;;;;;;;;;5008083;28;20384;-80
2022/12/28 04:51:57;;;;;;;;;;;;;;;;;;5009547;28;19921;-80
2022/12/28 04:54:22;;;;;;;;;;;;;;;;;;5007762;28;19982;-79
2022/12/28 04:56:48;;;;;;;;;;;;;;;;;;4990548;28;19913;-79
2022/12/28 04:59:14;;;;;;;;;;;;;;;;;;4991970;28;19918;-79
2022/12/28 05:01:39;;;;;;;;;;;;;;;;;;4992531;28;19977;-80
2022/12/28 05:04:05;;;;;;;;;;;;;;;;;;4978340;28;19914;-79
2022/12/28 05:06:31;;;;;;;;;;;;;;;;;;5008666;28;19921;-79
2022/12/28 05:08:56;;;;;;;;;;;;;;;;;;4975776;28;20400;-80
2022/12/28 05:11:22;;;;;;;;;;;;;;;;;;5008070;28;19985;-80
2022/12/28 05:13:48;;;;;;;;;;;;;;;;;;4975163;28;19914;-79
2022/12/28 05:16:13;;;;;;;;;;;;;;;;;;4974479;28;19921;-79
2022/12/28 05:18:39;;;;;;;;;;;;;;;;;;4991723;28;19917;-79
2022/12/28 05:21:05;;;;;;;;;;;;;;;;;;5004864;28;19914;-79
2022/12/28 05:23:33;;;;;;;;;;;;;;;;;;4972966;28;19914;-79
2022/12/28 05:25:59;;;;;;;;;;;;;;;;;;4988114;28;20365;-79
2022/12/28 05:28:24;;;;;;;;;;;;;;;;;;5005819;28;19917;-79
2022/12/28 05:30:50;;;;;;;;;;;;;;;;;;5008533;28;20319;-79
2022/12/28 05:33:18;;;;;;;;;;;;;;;;;;5008848;28;19914;-78
2022/12/28 05:35:43;;;;;;;;;;;;;;;;;;5001154;23;19904;-79
2022/12/28 05:38:09;;;;;;;;;;;;;;;;;;5006449;28;19922;-79
2022/12/28 05:40:34;;;;;;;;;;;;;;;;;;5005116;28;20322;-78
2022/12/28 05:43:00;;;;;;;;;;;;;;;;;;4971276;28;19988;-79
2022/12/28 05:45:25;;;;;;;;;;;;;;;;;;5003586;28;19936;-80
2022/12/28 05:47:51;;;;;;;;;;;;;;;;;;5001000;28;19913;-79
2022/12/28 05:50:16;;;;;;;;;;;;;;;;;;4983830;28;19921;-79
2022/12/28 05:52:42;;;;;;;;;;;;;;;;;;4982293;28;19925;-80
2022/12/28 05:55:08;;;;;;;;;;;;;;;;;;4999218;28;19957;-79
2022/12/28 05:57:33;;;;;;;;;;;;;;;;;;4999787;28;19918;-78
2022/12/28 05:59:59;;;;;;;;;;;;;;;;;;4969662;28;19969;-79
2022/12/28 06:02:26;;;;;;;;;;;;;;;;;;4999598;28;19914;-78
2022/12/28 06:04:51;;;;;;;;;;;;;;;;;;4998953;28;20406;-79
2022/12/28 06:07:17;;;;;;;;;;;;;;;;;;4999653;28;19979;-79
2022/12/28 06:09:42;;;;;;;;;;;;;;;;;;5001278;28;20016;-80
2022/12/28 06:12:08;;;;;;;;;;;;;;;;;;5001935;28;19921;-80
2022/12/28 06:14:34;;;;;;;;;;;;;;;;;;4969042;28;19921;-80
2022/12/28 06:16:59;;;;;;;;;;;;;;;;;;4985873;28;19917;-81
2022/12/28 06:19:25;;;;;;;;;;;;;;;;;;4970755;28;19941;-79
2022/12/28 06:21:50;;;;;;;;;;;;;;;;;;4985595;28;19921;-78
2022/12/28 06:24:17;;;;;;;;;;;;;;;;;;5000588;28;20395;-79
2022/12/28 06:26:43;;;;;;;;;;;;;;;;;;4997388;28;19918;-78
2022/12/28 06:29:08;;;;;;;;;;;;;;;;;;4980865;28;19914;-78
2022/12/28 06:31:34;;;;;;;;;;;;;;;;;;4979548;28;19921;-80
2022/12/28 06:33:59;;;;;;;;;;;;;;;;;;4980128;28;19917;-81
2022/12/28 06:36:25;;;;;;;;;;;;;;;;;;4996070;28;19917;-81
2022/12/28 06:38:50;;;;;;;;;;;;;;;;;;4996287;28;19940;-83
2022/12/28 06:41:16;;;;;;;;;;;;;;;;;;4961543;28;19953;-84
2022/12/28 06:43:41;;;;;;;;;;;;;;;;;;4976908;28;20320;-81
2022/12/28 06:46:07;;;;;;;;;;;;;;;;;;4977617;28;19918;-80
2022/12/28 06:48:32;;;;;;;;;;;;;;;;;;4996609;28;20363;-80
2022/12/28 06:50:58;;;;;;;;;;;;;;;;;;4995997;28;19944;-79
2022/12/28 06:53:24;;;;;;;;;;;;;;;;;;4995487;28;19977;-82
2022/12/28 06:55:49;;;;;;;;;;;;;;;;;;4977223;28;19920;-80
2022/12/28 06:58:14;;;;;;;;;;;;;;;;;;4979010;28;19984;-80
2022/12/28 07:00:40;;;;;;;;;;;;;;;;;;5001747;28;19914;-79
2022/12/28 07:03:06;;;;;;;;;;;;;;;;;;4998073;28;19921;-80
2022/12/28 07:05:32;;;;;;;;;;;;;;;;;;4998913;28;20101;-80
2022/12/28 07:07:57;;;;;;;;;;;;;;;;;;4978407;28;20578;-78
2022/12/28 07:10:23;;;;;;;;;;;;;;;;;;4993810;28;19913;-79
2022/12/28 07:12:48;;;;;;;;;;;;;;;;;;4994159;28;20387;-82
2022/12/28 07:15:13;;;;;;;;;;;;;;;;;;4993447;28;20387;-79
2022/12/28 07:17:39;;;;;;;;;;;;;;;;;;4977644;28;20440;-81
2022/12/28 07:20:04;;;;;;;;;;;;;;;;;;4962448;28;19918;-81
2022/12/28 07:22:30;;;;;;;;;;;;;;;;;;4997099;28;19913;-80
2022/12/28 07:24:55;;;;;;;;;;;;;;;;;;4963188;28;20370;-81
2022/12/28 07:27:21;;;;;;;;;;;;;;;;;;4980665;28;19913;-82
2022/12/28 07:29:46;;;;;;;;;;;;;;;;;;4978734;28;19914;-81
2022/12/28 07:32:12;;;;;;;;;;;;;;;;;;4998398;28;19924;-80
2022/12/28 07:34:37;;;;;;;;;;;;;;;;;;5006556;28;19914;-79
2022/12/28 07:37:02;;;;;;;;;;;;;;;;;;5003800;28;19918;-80
2022/12/28 07:39:28;;;;;;;;;;;;;;;;;;4986215;28;19940;-81
2022/12/28 07:41:54;;;;;;;;;;;;;;;;;;5006406;28;19910;-80
2022/12/28 07:44:20;;;;;;;;;;;;;;;;;;4986609;28;19918;-79
2022/12/28 07:46:45;;;;;;;;;;;;;;;;;;5000783;28;19913;-79
2022/12/28 07:49:11;;;;;;;;;;;;;;;;;;4987539;28;19917;-79
2022/12/28 07:51:37;;;;;;;;;;;;;;;;;;4986337;28;19914;-79
2022/12/28 07:54:02;;;;;;;;;;;;;;;;;;5004473;28;20004;-78
2022/12/28 07:56:28;;;;;;;;;;;;;;;;;;4970740;28;19914;-79
2022/12/28 07:58:54;;;;;;;;;;;;;;;;;;4984164;28;19917;-79
2022/12/28 08:01:20;;;;;;;;;;;;;;;;;;5002584;28;19937;-80
2022/12/28 08:03:46;;;;;;;;;;;;;;;;;;5003524;28;19942;-79
2022/12/28 08:06:11;;;;;;;;;;;;;;;;;;4989850;28;19914;-79
2022/12/28 08:08:37;;;;;;;;;;;;;;;;;;4973368;28;19921;-80
2022/12/28 08:11:13;;;;;;;;;;;;;;;;;;4989030;28;19914;-78
2022/12/28 08:13:39;;;;;;;;;;;;;;;;;;5002450;28;19921;-79
2022/12/28 08:16:05;;;;;;;;;;;;;;;;;;5003561;28;19910;-79
2022/12/28 08:18:30;;;;;;;;;;;;;;;;;;5009361;28;19957;-80
2022/12/28 08:20:56;;;;;;;;;;;;;;;;;;5012713;28;19921;-78
2022/12/28 08:23:21;;;;;;;;;;;;;;;;;;4995322;28;19914;-82
2022/12/28 08:25:47;;;;;;;;;;;;;;;;;;5011586;28;19913;-79
2022/12/28 08:28:13;;;;;;;;;;;;;;;;;;4993537;28;19934;-80
2022/12/28 08:30:38;;;;;;;;;;;;;;;;;;4996150;28;19929;-79
2022/12/28 08:33:04;;;;;;;;;;;;;;;;;;4995054;28;20071;-79
2022/12/28 08:35:30;;;;;;;;;;;;;;;;;;4974216;28;19913;-80
2022/12/28 08:37:55;;;;;;;;;;;;;;;;;;4976253;28;19918;-79
2022/12/28 08:40:26;;;;;;;;;;;;;;;;;;5008992;28;20048;-79
2022/12/28 08:42:52;;;;;;;;;;;;;;;;;;4977868;28;19914;-79
2022/12/28 08:45:18;;;;;;;;;;;;;;;;;;4996090;28;19913;-80
2022/12/28 08:47:43;;;;;;;;;;;;;;;;;;5011565;28;19913;-81
2022/12/28 08:50:09;;;;;;;;;;;;;;;;;;5011386;28;20008;-80
2022/12/28 08:52:35;;;;;;;;;;;;;;;;;;5008912;28;20460;-79
2022/12/28 08:55:01;;;;;;;;;;;;;;;;;;4979567;28;19956;-81
2022/12/28 08:57:26;;;;;;;;;;;;;;;;;;5009046;28;19913;-80
2022/12/28 08:59:52;;;;;;;;;;;;;;;;;;5006120;28;20444;-79
2022/12/28 09:02:17;;;;;;;;;;;;;;;;;;5011929;28;19933;-79
2022/12/28 09:04:42;;;;;;;;;;;;;;;;;;5008705;28;20301;-80
2022/12/28 09:07:08;;;;;;;;;;;;;;;;;;5009241;28;19952;-81
2022/12/28 09:09:33;;;;;;;;;;;;;;;;;;5009191;28;20362;-80
2022/12/28 09:11:59;;;;;;;;;;;;;;;;;;5008178;28;19921;-80
2022/12/28 09:14:24;;;;;;;;;;;;;;;;;;5006153;28;19922;-80
2022/12/28 09:16:50;;;;;;;;;;;;;;;;;;4980087;28;20377;-80
2022/12/28 09:19:16;;;;;;;;;;;;;;;;;;5012930;28;19921;-79
2022/12/28 09:21:41;;;;;;;;;;;;;;;;;;4996064;28;19925;-81
2022/12/28 09:24:07;;;;;;;;;;;;;;;;;;4998353;28;19920;-80
2022/12/28 09:26:33;;;;;;;;;;;;;;;;;;5011000;28;19941;-85
2022/12/28 09:28:59;;;;;;;;;;;;;;;;;;4995077;28;19920;-81
2022/12/28 09:31:24;;;;;;;;;;;;;;;;;;4994540;28;19920;-82
2022/12/28 09:33:59;;;;;;;;;;;;;;;;;;4994777;28;19925;-83
2022/12/28 09:36:25;;;;;;;;;;;;;;;;;;4991549;28;19918;-82
2022/12/28 09:38:50;;;;;;;;;;;;;;;;;;4989358;28;19918;-80
2022/12/28 09:41:16;;;;;;;;;;;;;;;;;;4988435;28;20377;-78
2022/12/28 09:43:42;;;;;;;;;;;;;;;;;;5001391;28;19914;-81
2022/12/28 09:46:07;;;;;;;;;;;;;;;;;;5001697;28;19920;-80
2022/12/28 09:48:33;;;;;;;;;;;;;;;;;;4973103;28;19979;-82
2022/12/28 09:50:59;;;;;;;;;;;;;;;;;;4975279;28;19921;-79
2022/12/28 09:53:25;;;;;;;;;;;;;;;;;;5006648;28;19916;-81
2022/12/28 09:55:54;;;;;;;;;;;;;;;;;;5003900;28;19944;-80
2022/12/28 09:58:22;;;;;;;;;;;;;;;;;;4986856;28;19980;-81
2022/12/28 10:00:48;;;;;;;;;;;;;;;;;;5003604;28;19997;-81
2022/12/28 10:03:14;;;;;;;;;;;;;;;;;;4987879;28;19972;-80
2022/12/28 10:05:42;;;;;;;;;;;;;;;;;;4970618;28;19956;-79
2022/12/28 10:08:10;;;;;;;;;;;;;;;;;;4967618;28;19990;-81
2022/12/28 10:10:36;;;;;;;;;;;;;;;;;;4998860;28;19962;-78
2022/12/28 10:13:04;;;;;;;;;;;;;;;;;;4980306;28;20337;-81
2022/12/28 10:15:32;;;;;;;;;;;;;;;;;;4982958;28;20236;-78
2022/12/28 10:17:58;;;;;;;;;;;;;;;;;;4967240;28;19968;-79
2022/12/28 10:20:23;;;;;;;;;;;;;;;;;;4984426;28;19964;-81
2022/12/28 10:22:49;;;;;;;;;;;;;;;;;;4997855;28;19914;-79
2022/12/28 10:25:16;;;;;;;;;;;;;;;;;;4982186;28;19932;-79
2022/12/28 10:27:41;;;;;;;;;;;;;;;;;;4963168;28;19920;-83
2022/12/28 10:30:07;;;;;;;;;;;;;;;;;;4995160;28;19939;-82
2022/12/28 10:32:32;;;;;;;;;;;;;;;;;;4964348;28;20045;-78
2022/12/28 10:34:58;;;;;;;;;;;;;;;;;;4967559;28;19914;-79
2022/12/28 10:37:24;;;;;;;;;;;;;;;;;;4979973;28;19917;-79
2022/12/28 10:39:49;;;;;;;;;;;;;;;;;;4995176;28;19914;-79
2022/12/28 10:42:15;;;;;;;;;;;;;;;;;;4993956;28;19913;-82
2022/12/28 10:44:41;;;;;;;;;;;;;;;;;;4994398;28;19917;-80
2022/12/28 10:47:07;;;;;;;;;;;;;;;;;;4979802;28;19913;-79
2022/12/28 10:49:32;;;;;;;;;;;;;;;;;;4962409;28;19917;-82
2022/12/28 10:51:58;;;;;;;;;;;;;;;;;;4994426;28;19918;-79
2022/12/28 10:54:26;;;;;;;;;;;;;;;;;;4994431;28;19914;-80
2022/12/28 10:56:52;;;;;;;;;;;;;;;;;;4977632;28;19976;-83
2022/12/28 10:59:17;;;;;;;;;;;;;;;;;;4961695;28;19918;-79
2022/12/28 11:01:43;;;;;;;;;;;;;;;;;;4977951;28;20305;-78
2022/12/28 11:04:08;;;;;;;;;;;;;;;;;;4993372;28;19914;-78
2022/12/28 11:06:34;;;;;;;;;;;;;;;;;;4993504;28;20002;-79
2022/12/28 11:09:00;;;;;;;;;;;;;;;;;;4977684;28;19964;-79
2022/12/28 11:11:25;;;;;;;;;;;;;;;;;;4961808;28;19921;-81
2022/12/28 11:13:51;;;;;;;;;;;;;;;;;;4994619;28;19909;-79
2022/12/28 11:16:16;;;;;;;;;;;;;;;;;;4977881;28;20022;-80
2022/12/28 11:18:42;;;;;;;;;;;;;;;;;;4977988;28;19929;-78
2022/12/28 11:21:08;;;;;;;;;;;;;;;;;;4994857;28;19914;-79
2022/12/28 11:23:34;;;;;;;;;;;;;;;;;;4962975;28;19925;-80
2022/12/28 11:25:59;;;;;;;;;;;;;;;;;;4996460;28;19989;-78
2022/12/28 11:28:25;;;;;;;;;;;;;;;;;;4977903;28;20000;-81
2022/12/28 11:30:51;;;;;;;;;;;;;;;;;;4977186;28;19914;-79
2022/12/28 11:33:16;;;;;;;;;;;;;;;;;;4977124;28;19914;-82
2022/12/28 11:35:42;;;;;;;;;;;;;;;;;;4960858;28;19918;-80
2022/12/28 11:38:07;;;;;;;;;;;;;;;;;;4994830;28;20017;-79
2022/12/28 11:40:33;;;;;;;;;;;;;;;;;;4977757;28;20337;-79
2022/12/28 11:42:58;;;;;;;;;;;;;;;;;;4962214;28;19914;-80
2022/12/28 11:45:24;;;;;;;;;;;;;;;;;;4977306;28;19916;-82
2022/12/28 11:47:49;;;;;;;;;;;;;;;;;;4994565;28;20477;-80
2022/12/28 11:50:15;;;;;;;;;;;;;;;;;;4993031;28;19945;-84
2022/12/28 11:52:41;;;;;;;;;;;;;;;;;;4962167;28;20072;-80
2022/12/28 11:55:07;;;;;;;;;;;;;;;;;;4982650;28;19967;-80
2022/12/28 11:57:33;;;;;;;;;;;;;;;;;;4998089;28;19917;-87
2022/12/28 12:00:05;;;;;;;;;;;;;;;;;;4996610;28;20012;-86
2022/12/28 12:02:33;;;;;;;;;;;;;;;;;;4997332;28;20003;-87
2022/12/28 12:04:59;;;;;;;;;;;;;;;;;;4980534;28;19993;-83
2022/12/28 12:07:25;;;;;;;;;;;;;;;;;;4999520;28;19955;-87
2022/12/28 12:09:50;;;;;;;;;;;;;;;;;;4983966;28;19910;-83
2022/12/28 12:12:16;;;;;;;;;;;;;;;;;;4983955;28;19968;-85
2022/12/28 12:14:41;;;;;;;;;;;;;;;;;;4984380;28;19920;-83
2022/12/28 12:17:10;;;;;;;;;;;;;;;;;;4985384;28;20360;-82
2022/12/28 12:19:36;;;;;;;;;;;;;;;;;;4969047;28;19918;-84
2022/12/28 12:22:01;;;;;;;;;;;;;;;;;;4986939;28;19933;-80
2022/12/28 12:24:27;;;;;;;;;;;;;;;;;;4984133;28;19953;-83
2022/12/28 12:26:53;;;;;;;;;;;;;;;;;;4970173;28;19917;-85
2022/12/28 12:29:18;;;;;;;;;;;;;;;;;;4990765;28;19913;-85
2022/12/28 12:31:46;;;;;;;;;;;;;;;;;;4990629;28;19937;-84
2022/12/28 12:34:12;;;;;;;;;;;;;;;;;;4992796;28;19921;-84
2022/12/28 12:36:38;;;;;;;;;;;;;;;;;;4988935;28;19918;-86
2022/12/28 12:39:03;;;;;;;;;;;;;;;;;;5004657;28;19917;-86
2022/12/28 12:41:29;;;;;;;;;;;;;;;;;;5003993;28;20337;-84
2022/12/28 12:43:54;;;;;;;;;;;;;;;;;;4981974;28;19969;-83
2022/12/28 12:46:20;;;;;;;;;;;;;;;;;;4996623;28;19914;-85
2022/12/28 12:48:46;;;;;;;;;;;;;;;;;;4980507;28;19940;-85
2022/12/28 12:51:11;;;;;;;;;;;;;;;;;;4980496;28;20004;-87
2022/12/28 12:53:37;;;;;;;;;;;;;;;;;;4981383;28;20291;-83
2022/12/28 12:56:02;;;;;;;;;;;;;;;;;;5000497;28;19936;-83
2022/12/28 12:58:28;;;;;;;;;;;;;;;;;;4980246;28;19921;-86
2022/12/28 13:00:54;;;;;;;;;;;;;;;;;;4979401;28;20296;-89
2022/12/28 13:03:19;;;;;;;;;;;;;;;;;;4996039;28;20373;-85
2022/12/28 13:05:45;;;;;;;;;;;;;;;;;;4962385;28;20096;-88
2022/12/28 13:08:10;;;;;;;;;;;;;;;;;;4996746;28;19920;-87
2022/12/28 13:10:36;;;;;;;;;;;;;;;;;;4965744;28;19936;-87
2022/12/28 13:13:02;;;;;;;;;;;;;;;;;;4965884;28;19917;-86
2022/12/28 13:15:28;;;;;;;;;;;;;;;;;;4996955;28;20282;-88
2022/12/28 13:17:53;;;;;;;;;;;;;;;;;;4998156;28;19918;-87
2022/12/28 13:20:19;;;;;;;;;;;;;;;;;;4983664;28;19967;-88
2022/12/28 13:22:44;;;;;;;;;;;;;;;;;;4980896;28;20017;-88
2022/12/28 13:25:10;;;;;;;;;;;;;;;;;;4966255;28;19985;-88
2022/12/28 13:27:36;;;;;;;;;;;;;;;;;;4999888;28;19914;-89
2022/12/28 13:30:01;;;;;;;;;;;;;;;;;;4995662;28;19921;-89
2022/12/28 13:32:30;;;;;;;;;;;;;;;;;;4995327;28;19914;-89
2022/12/28 13:34:56;;;;;;;;;;;;;;;;;;4963526;28;20017;-90
2022/12/28 13:37:21;;;;;;;;;;;;;;;;;;4980027;28;19918;-87
2022/12/28 13:39:47;;;;;;;;;;;;;;;;;;4996581;28;20000;-87
2022/12/28 13:42:12;;;;;;;;;;;;;;;;;;4997093;28;19941;-89
2022/12/28 13:44:38;;;;;;;;;;;;;;;;;;4965917;28;19939;-86
2022/12/28 13:47:04;;;;;;;;;;;;;;;;;;4983296;28;19910;-89
2022/12/28 13:49:29;;;;;;;;;;;;;;;;;;4968338;28;19914;-84
2022/12/28 13:51:55;;;;;;;;;;;;;;;;;;4967657;28;19914;-87
2022/12/28 13:54:23;;;;;;;;;;;;;;;;;;4999120;28;19925;-86
2022/12/28 13:56:49;;;;;;;;;;;;;;;;;;4982097;28;19993;-89
2022/12/28 13:59:14;;;;;;;;;;;;;;;;;;4964423;28;19921;-88
2022/12/28 14:01:40;;;;;;;;;;;;;;;;;;4966185;28;19913;-87
2022/12/28 14:04:05;;;;;;;;;;;;;;;;;;4970076;28;19913;-86
2022/12/28 14:06:31;;;;;;;;;;;;;;;;;;4985138;28;19914;-86
2022/12/28 14:08:57;;;;;;;;;;;;;;;;;;5000248;28;20134;-86
2022/12/28 14:11:23;;;;;;;;;;;;;;;;;;4985779;28;19918;-88
2022/12/28 14:13:48;;;;;;;;;;;;;;;;;;5000996;28;19915;-87
2022/12/28 14:16:14;;;;;;;;;;;;;;;;;;4984751;28;19917;-87
2022/12/28 14:18:39;;;;;;;;;;;;;;;;;;5001954;28;20347;-87
2022/12/28 14:21:08;;;;;;;;;;;;;;;;;;5004499;28;19960;-86
2022/12/28 14:23:34;;;;;;;;;;;;;;;;;;5007636;28;19943;-87
2022/12/28 14:25:59;;;;;;;;;;;;;;;;;;5007197;28;19964;-86
2022/12/28 14:28:25;;;;;;;;;;;;;;;;;;4988528;28;19914;-86
2022/12/28 14:30:50;;;;;;;;;;;;;;;;;;5004840;28;19921;-87
2022/12/28 14:33:16;;;;;;;;;;;;;;;;;;5003438;28;19979;-87
2022/12/28 14:35:42;;;;;;;;;;;;;;;;;;5005278;28;20226;-87
2022/12/28 14:38:07;;;;;;;;;;;;;;;;;;4998913;28;19942;-85
2022/12/28 14:40:33;;;;;;;;;;;;;;;;;;4996900;28;19917;-84
2022/12/28 14:42:58;;;;;;;;;;;;;;;;;;4995166;28;19972;-85
2022/12/28 14:45:24;;;;;;;;;;;;;;;;;;4977634;28;19933;-87
2022/12/28 14:47:49;;;;;;;;;;;;;;;;;;4993328;28;20348;-84
2022/12/28 14:50:15;;;;;;;;;;;;;;;;;;4993719;28;19925;-85
2022/12/28 14:52:42;;;;;;;;;;;;;;;;;;4992297;28;20029;-86
2022/12/28 14:55:07;;;;;;;;;;;;;;;;;;4993587;28;19933;-86
2022/12/28 14:57:33;;;;;;;;;;;;;;;;;;4993315;28;19976;-86
2022/12/28 14:59:58;;;;;;;;;;;;;;;;;;4994166;28;19914;-86
2022/12/28 15:02:24;;;;;;;;;;;;;;;;;;4976565;28;19917;-85
2022/12/28 15:04:49;;;;;;;;;;;;;;;;;;4960663;28;19968;-86
2022/12/28 15:07:15;;;;;;;;;;;;;;;;;;4991992;28;19921;-87
2022/12/28 15:09:40;;;;;;;;;;;;;;;;;;4993744;28;20005;-86
2022/12/28 15:12:06;;;;;;;;;;;;;;;;;;4977202;28;19968;-87
2022/12/28 15:14:31;;;;;;;;;;;;;;;;;;4962846;28;19914;-85
2022/12/28 15:16:57;;;;;;;;;;;;;;;;;;4995863;28;19906;-85
2022/12/28 15:19:23;;;;;;;;;;;;;;;;;;4993342;28;19953;-86
2022/12/28 15:21:48;;;;;;;;;;;;;;;;;;4976642;28;19914;-85
2022/12/28 15:24:14;;;;;;;;;;;;;;;;;;4992398;28;19972;-82
2022/12/28 15:26:39;;;;;;;;;;;;;;;;;;4992532;28;20016;-86
2022/12/28 15:29:05;;;;;;;;;;;;;;;;;;4976175;28;19921;-86
2022/12/28 15:31:30;;;;;;;;;;;;;;;;;;4976507;28;19914;-85
2022/12/28 15:33:56;;;;;;;;;;;;;;;;;;4980916;28;19977;-86
2022/12/28 15:36:23;;;;;;;;;;;;;;;;;;5005347;28;19928;-89
2022/12/28 15:38:49;;;;;;;;;;;;;;;;;;5000692;28;19918;-89
2022/12/28 15:43:58;;;;;;;;;;;;;;;;;;4977438;28;19964;-89
2022/12/28 15:46:24;;;;;;;;;;;;;;;;;;4978183;28;20008;-88
2022/12/28 15:48:49;;;;;;;;;;;;;;;;;;4993814;28;19950;-89
2022/12/28 15:51:15;;;;;;;;;;;;;;;;;;4961901;28;19914;-87
2022/12/28 15:53:41;;;;;;;;;;;;;;;;;;4977147;28;19913;-89
2022/12/28 15:56:07;;;;;;;;;;;;;;;;;;4960511;28;19920;-90
2022/12/28 15:58:32;;;;;;;;;;;;;;;;;;4977231;28;20008;-90
2022/12/28 16:04:03;;;;;;;;;;;;;;;;;;4995201;28;20028;-90
2022/12/28 16:06:31;;;;;;;;;;;;;;;;;;4963804;28;19964;-86
2022/12/28 16:09:03;;;;;;;;;;;;;;;;;;4994594;28;19981;-90
2022/12/28 16:11:28;;;;;;;;;;;;;;;;;;4977033;28;19914;-88
2022/12/28 16:13:54;;;;;;;;;;;;;;;;;;4976711;28;19921;-88
2022/12/28 16:16:19;;;;;;;;;;;;;;;;;;4993439;28;20277;-89
2022/12/28 16:18:45;;;;;;;;;;;;;;;;;;4961741;28;20344;-87
2022/12/28 16:21:10;;;;;;;;;;;;;;;;;;4994695;28;19984;-88
2022/12/28 16:23:36;;;;;;;;;;;;;;;;;;4975810;28;19997;-87
2022/12/28 16:26:02;;;;;;;;;;;;;;;;;;4993625;28;19936;-89
2022/12/28 16:28:27;;;;;;;;;;;;;;;;;;4975955;28;19921;-89
2022/12/28 16:30:52;;;;;;;;;;;;;;;;;;4991685;28;20366;-88
2022/12/28 16:33:18;;;;;;;;;;;;;;;;;;4975323;28;20373;-88
2022/12/28 16:35:47;;;;;;;;;;;;;;;;;;4975003;28;20385;-86
2022/12/28 16:38:13;;;;;;;;;;;;;;;;;;4975597;28;19977;-86
2022/12/28 16:40:38;;;;;;;;;;;;;;;;;;4961697;28;19913;-86
2022/12/28 16:43:03;;;;;;;;;;;;;;;;;;4978635;28;20553;-86
2022/12/28 16:45:29;;;;;;;;;;;;;;;;;;4962690;28;19914;-83
2022/12/28 16:47:54;;;;;;;;;;;;;;;;;;4994484;28;19921;-86
2022/12/28 16:50:20;;;;;;;;;;;;;;;;;;4978442;28;20393;-87
2022/12/28 16:52:45;;;;;;;;;;;;;;;;;;4994342;28;19989;-87
2022/12/28 16:55:11;;;;;;;;;;;;;;;;;;4994569;28;20366;-84
2022/12/28 16:57:36;;;;;;;;;;;;;;;;;;4962372;28;19914;-88
2022/12/28 17:00:02;;;;;;;;;;;;;;;;;;4962318;28;19913;-85
2022/12/28 17:02:28;;;;;;;;;;;;;;;;;;4978189;28;19972;-85
2022/12/28 17:04:53;;;;;;;;;;;;;;;;;;4994145;28;19913;-81
2022/12/28 17:07:19;;;;;;;;;;;;;;;;;;4994135;28;19914;-83
2022/12/28 17:09:44;;;;;;;;;;;;;;;;;;4994371;28;19945;-82